sensor_id;sensor_type;location;lat;lon;timestamp;pressure;altitude;pressure_sealevel;temperature;humidity
11001;BME280;5553;48.506;8.870;2023-07-24T00:00:44;96120.72;;;15.90;100.00
11001;BME280;5553;48.506;8.870;2023-07-24T00:03:12;96123.34;;;16.02;100.00
11001;BME280;5553;48.506;8.870;2023-07-24T00:05:43;96128.53;;;16.08;100.00
11001;BME280;5553;48.506;8.870;2023-07-24T00:08:11;96122.75;;;16.11;100.00
11001;BME280;5553;48.506;8.870;2023-07-24T00:10:39;96108.72;;;16.16;100.00
11001;BME280;5553;48.506;8.870;2023-07-24T00:13:08;96122.03;;;16.16;100.00
11001;BME280;5553;48.506;8.870;2023-07-24T00:15:38;96118.47;;;16.10;100.00
11001;BME280;5553;48.506;8.870;2023-07-24T00:18:06;96110.38;;;16.05;100.00
11001;BME280;5553;48.506;8.870;2023-07-24T00:20:35;96113.50;;;16.14;100.00
11001;BME280;5553;48.506;8.870;2023-07-24T00:23:05;96110.50;;;15.99;100.00
11001;BME280;5553;48.506;8.870;2023-07-24T00:25:34;96083.94;;;15.87;100.00
11001;BME280;5553;48.506;8.870;2023-07-24T00:28:02;96103.13;;;15.89;100.00
11001;BME280;5553;48.506;8.870;2023-07-24T00:30:30;96098.97;;;15.93;100.00
11001;BME280;5553;48.506;8.870;2023-07-24T00:32:59;96105.31;;;15.92;100.00
11001;BME280;5553;48.506;8.870;2023-07-24T00:35:27;96102.25;;;15.25;100.00
11001;BME280;5553;48.506;8.870;2023-07-24T00:37:55;96114.03;;;15.29;100.00
11001;BME280;5553;48.506;8.870;2023-07-24T00:40:26;96107.56;;;15.36;100.00
11001;BME280;5553;48.506;8.870;2023-07-24T00:42:54;96109.19;;;15.49;100.00
11001;BME280;5553;48.506;8.870;2023-07-24T00:45:23;96098.66;;;15.78;100.00
11001;BME280;5553;48.506;8.870;2023-07-24T00:47:52;96084.88;;;15.81;100.00
11001;BME280;5553;48.506;8.870;2023-07-24T00:50:20;96093.28;;;15.90;100.00
11001;BME280;5553;48.506;8.870;2023-07-24T00:52:49;96086.16;;;15.90;100.00
11001;BME280;5553;48.506;8.870;2023-07-24T00:55:17;96090.56;;;15.26;100.00
11001;BME280;5553;48.506;8.870;2023-07-24T00:57:49;96043.19;;;15.23;100.00
11001;BME280;5553;48.506;8.870;2023-07-24T01:00:17;96081.91;;;15.42;100.00
11001;BME280;5553;48.506;8.870;2023-07-24T01:02:46;96069.75;;;15.58;100.00
11001;BME280;5553;48.506;8.870;2023-07-24T01:05:15;96059.81;;;15.53;100.00
11001;BME280;5553;48.506;8.870;2023-07-24T01:07:44;96072.41;;;15.58;100.00
11001;BME280;5553;48.506;8.870;2023-07-24T01:10:12;96075.84;;;15.58;100.00
11001;BME280;5553;48.506;8.870;2023-07-24T01:12:49;96065.13;;;15.77;100.00
11001;BME280;5553;48.506;8.870;2023-07-24T01:15:23;96085.81;;;15.86;100.00
11001;BME280;5553;48.506;8.870;2023-07-24T01:17:57;96069.44;;;15.66;100.00
11001;BME280;5553;48.506;8.870;2023-07-24T01:20:29;96060.41;;;15.44;100.00
11001;BME280;5553;48.506;8.870;2023-07-24T01:23:10;96056.00;;;15.49;100.00
11001;BME280;5553;48.506;8.870;2023-07-24T01:25:53;96083.16;;;15.28;100.00
11001;BME280;5553;48.506;8.870;2023-07-24T01:28:22;96075.41;;;15.38;100.00
11001;BME280;5553;48.506;8.870;2023-07-24T01:30:50;96084.44;;;15.49;100.00
11001;BME280;5553;48.506;8.870;2023-07-24T01:33:18;96053.00;;;15.46;100.00
11001;BME280;5553;48.506;8.870;2023-07-24T01:35:48;96070.41;;;15.65;100.00
11001;BME280;5553;48.506;8.870;2023-07-24T01:38:18;96087.91;;;15.73;100.00
11001;BME280;5553;48.506;8.870;2023-07-24T01:40:50;96088.00;;;15.54;100.00
11001;BME280;5553;48.506;8.870;2023-07-24T01:43:19;96082.22;;;15.57;100.00
11001;BME280;5553;48.506;8.870;2023-07-24T01:45:48;96081.31;;;15.63;100.00
11001;BME280;5553;48.506;8.870;2023-07-24T01:48:16;96065.25;;;15.47;100.00
11001;BME280;5553;48.506;8.870;2023-07-24T01:50:44;96073.22;;;15.35;100.00
11001;BME280;5553;48.506;8.870;2023-07-24T01:53:13;96084.00;;;15.28;100.00
11001;BME280;5553;48.506;8.870;2023-07-24T01:55:41;96057.06;;;15.25;100.00
11001;BME280;5553;48.506;8.870;2023-07-24T01:58:12;96065.25;;;15.11;100.00
11001;BME280;5553;48.506;8.870;2023-07-24T02:00:41;96049.88;;;15.13;100.00
11001;BME280;5553;48.506;8.870;2023-07-24T02:03:10;96049.44;;;15.16;100.00
11001;BME280;5553;48.506;8.870;2023-07-24T02:05:38;96059.72;;;15.13;100.00
11001;BME280;5553;48.506;8.870;2023-07-24T02:08:06;96047.13;;;15.20;100.00
11001;BME280;5553;48.506;8.870;2023-07-24T02:10:36;96039.25;;;15.13;100.00
11001;BME280;5553;48.506;8.870;2023-07-24T02:13:05;95977.25;;;14.84;100.00
11001;BME280;5553;48.506;8.870;2023-07-24T02:15:37;96029.56;;;14.84;100.00
11001;BME280;5553;48.506;8.870;2023-07-24T02:18:05;96024.94;;;14.91;100.00
11001;BME280;5553;48.506;8.870;2023-07-24T02:20:34;96018.00;;;14.90;100.00
11001;BME280;5553;48.506;8.870;2023-07-24T02:23:02;96014.69;;;14.95;100.00
11001;BME280;5553;48.506;8.870;2023-07-24T02:25:30;96021.81;;;14.82;100.00
11001;BME280;5553;48.506;8.870;2023-07-24T02:27:59;96028.31;;;14.98;100.00
11001;BME280;5553;48.506;8.870;2023-07-24T02:30:27;96010.50;;;14.75;100.00
11001;BME280;5553;48.506;8.870;2023-07-24T02:32:58;96022.81;;;14.69;100.00
11001;BME280;5553;48.506;8.870;2023-07-24T02:35:26;96013.50;;;14.67;100.00
11001;BME280;5553;48.506;8.870;2023-07-24T02:37:54;95997.31;;;14.57;100.00
11001;BME280;5553;48.506;8.870;2023-07-24T02:40:22;96009.66;;;14.63;100.00
11001;BME280;5553;48.506;8.870;2023-07-24T02:42:51;96004.25;;;14.58;100.00
11001;BME280;5553;48.506;8.870;2023-07-24T02:45:19;95998.66;;;14.36;100.00
11001;BME280;5553;48.506;8.870;2023-07-24T02:47:47;95989.69;;;14.18;100.00
11001;BME280;5553;48.506;8.870;2023-07-24T02:50:18;95992.47;;;14.23;100.00
11001;BME280;5553;48.506;8.870;2023-07-24T02:52:46;96000.25;;;13.95;100.00
11001;BME280;5553;48.506;8.870;2023-07-24T02:55:15;95981.56;;;13.71;100.00
11001;BME280;5553;48.506;8.870;2023-07-24T03:00:15;95998.13;;;13.85;100.00
11001;BME280;5553;48.506;8.870;2023-07-24T03:02:45;96018.53;;;13.85;100.00
11001;BME280;5553;48.506;8.870;2023-07-24T03:05:13;96003.09;;;13.93;100.00
11001;BME280;5553;48.506;8.870;2023-07-24T03:07:44;96007.50;;;13.99;100.00
11001;BME280;5553;48.506;8.870;2023-07-24T03:10:13;95995.22;;;14.05;100.00
11001;BME280;5553;48.506;8.870;2023-07-24T03:12:41;96004.13;;;14.22;100.00
11001;BME280;5553;48.506;8.870;2023-07-24T03:15:12;96012.47;;;14.26;100.00
11001;BME280;5553;48.506;8.870;2023-07-24T03:17:40;96010.09;;;14.18;100.00
11001;BME280;5553;48.506;8.870;2023-07-24T03:20:09;96002.38;;;13.86;100.00
11001;BME280;5553;48.506;8.870;2023-07-24T03:22:38;96007.78;;;13.80;100.00
11001;BME280;5553;48.506;8.870;2023-07-24T03:25:13;95991.13;;;13.72;100.00
11001;BME280;5553;48.506;8.870;2023-07-24T03:27:41;96000.63;;;13.80;100.00
11001;BME280;5553;48.506;8.870;2023-07-24T03:30:10;96007.31;;;13.83;100.00
11001;BME280;5553;48.506;8.870;2023-07-24T03:32:39;96005.72;;;13.82;100.00
11001;BME280;5553;48.506;8.870;2023-07-24T03:35:08;96000.19;;;13.83;100.00
11001;BME280;5553;48.506;8.870;2023-07-24T03:37:38;96017.34;;;13.81;100.00
11001;BME280;5553;48.506;8.870;2023-07-24T03:40:10;96005.16;;;13.61;100.00
11001;BME280;5553;48.506;8.870;2023-07-24T03:42:39;95994.94;;;13.77;100.00
11001;BME280;5553;48.506;8.870;2023-07-24T03:45:08;95995.59;;;13.90;100.00
11001;BME280;5553;48.506;8.870;2023-07-24T03:47:36;96014.59;;;13.87;100.00
11001;BME280;5553;48.506;8.870;2023-07-24T03:50:08;96008.66;;;13.73;100.00
11001;BME280;5553;48.506;8.870;2023-07-24T03:52:37;96003.16;;;13.75;100.00
11001;BME280;5553;48.506;8.870;2023-07-24T03:55:09;96007.16;;;13.78;100.00
11001;BME280;5553;48.506;8.870;2023-07-24T03:57:37;96015.59;;;13.74;100.00
11001;BME280;5553;48.506;8.870;2023-07-24T04:00:11;96014.31;;;13.77;100.00
11001;BME280;5553;48.506;8.870;2023-07-24T04:02:44;96007.69;;;13.86;100.00
11001;BME280;5553;48.506;8.870;2023-07-24T04:05:13;96003.78;;;13.89;100.00
11001;BME280;5553;48.506;8.870;2023-07-24T04:07:41;95986.31;;;13.99;100.00
11001;BME280;5553;48.506;8.870;2023-07-24T04:10:12;96003.28;;;14.10;100.00
11001;BME280;5553;48.506;8.870;2023-07-24T04:12:43;95988.88;;;14.18;100.00
11001;BME280;5553;48.506;8.870;2023-07-24T04:15:14;95978.97;;;14.25;100.00
11001;BME280;5553;48.506;8.870;2023-07-24T04:17:42;95983.03;;;14.28;100.00
11001;BME280;5553;48.506;8.870;2023-07-24T04:20:14;95974.19;;;14.45;100.00
11001;BME280;5553;48.506;8.870;2023-07-24T04:22:43;95968.66;;;14.47;100.00
11001;BME280;5553;48.506;8.870;2023-07-24T04:25:15;95948.16;;;14.54;100.00
11001;BME280;5553;48.506;8.870;2023-07-24T04:27:43;95956.47;;;14.58;100.00
11001;BME280;5553;48.506;8.870;2023-07-24T04:30:11;95944.94;;;14.64;100.00
11001;BME280;5553;48.506;8.870;2023-07-24T04:32:40;95951.59;;;14.66;100.00
11001;BME280;5553;48.506;8.870;2023-07-24T04:35:08;95957.69;;;16.06;100.00
11001;BME280;5553;48.506;8.870;2023-07-24T04:37:37;95953.97;;;16.87;100.00
11001;BME280;5553;48.506;8.870;2023-07-24T04:40:06;95944.44;;;16.91;100.00
11001;BME280;5553;48.506;8.870;2023-07-24T04:42:38;95950.88;;;17.34;100.00
11001;BME280;5553;48.506;8.870;2023-07-24T04:45:07;95946.72;;;17.21;100.00
11001;BME280;5553;48.506;8.870;2023-07-24T04:47:36;95951.38;;;17.31;100.00
11001;BME280;5553;48.506;8.870;2023-07-24T04:50:05;95935.75;;;15.71;100.00
11001;BME280;5553;48.506;8.870;2023-07-24T04:52:34;95928.47;;;15.14;100.00
11001;BME280;5553;48.506;8.870;2023-07-24T04:55:03;95937.53;;;15.01;100.00
11001;BME280;5553;48.506;8.870;2023-07-24T04:57:31;95938.78;;;14.87;100.00
11001;BME280;5553;48.506;8.870;2023-07-24T05:00:03;95960.63;;;14.89;100.00
11001;BME280;5553;48.506;8.870;2023-07-24T05:02:32;95964.19;;;15.06;100.00
11001;BME280;5553;48.506;8.870;2023-07-24T05:05:00;95952.50;;;15.19;100.00
11001;BME280;5553;48.506;8.870;2023-07-24T05:07:28;95955.59;;;15.28;100.00
11001;BME280;5553;48.506;8.870;2023-07-24T05:09:57;95950.97;;;15.35;100.00
11001;BME280;5553;48.506;8.870;2023-07-24T05:12:25;95964.72;;;15.44;100.00
11001;BME280;5553;48.506;8.870;2023-07-24T05:14:51;95985.84;;;15.50;100.00
11001;BME280;5553;48.506;8.870;2023-07-24T05:17:22;95990.56;;;15.48;100.00
11001;BME280;5553;48.506;8.870;2023-07-24T05:19:50;96006.53;;;15.60;100.00
11001;BME280;5553;48.506;8.870;2023-07-24T05:22:19;96000.50;;;15.64;100.00
11001;BME280;5553;48.506;8.870;2023-07-24T05:24:47;96011.94;;;15.77;100.00
11001;BME280;5553;48.506;8.870;2023-07-24T05:27:15;96005.91;;;15.81;100.00
11001;BME280;5553;48.506;8.870;2023-07-24T05:29:43;96006.81;;;15.87;100.00
11001;BME280;5553;48.506;8.870;2023-07-24T05:32:12;96005.03;;;15.93;100.00
11001;BME280;5553;48.506;8.870;2023-07-24T05:34:42;95994.31;;;15.87;100.00
11001;BME280;5553;48.506;8.870;2023-07-24T05:37:11;96013.41;;;15.84;100.00
11001;BME280;5553;48.506;8.870;2023-07-24T05:39:39;96040.59;;;15.75;100.00
11001;BME280;5553;48.506;8.870;2023-07-24T05:42:07;96019.66;;;15.78;100.00
11001;BME280;5553;48.506;8.870;2023-07-24T05:44:35;96033.41;;;15.87;100.00
11001;BME280;5553;48.506;8.870;2023-07-24T05:47:04;96042.28;;;15.93;100.00
11001;BME280;5553;48.506;8.870;2023-07-24T05:49:32;96037.44;;;15.90;100.00
11001;BME280;5553;48.506;8.870;2023-07-24T05:52:04;96033.88;;;15.84;100.00
11001;BME280;5553;48.506;8.870;2023-07-24T05:54:32;95982.97;;;15.92;100.00
11001;BME280;5553;48.506;8.870;2023-07-24T05:57:00;96031.31;;;15.89;100.00
11001;BME280;5553;48.506;8.870;2023-07-24T05:59:28;96027.03;;;16.17;100.00
11001;BME280;5553;48.506;8.870;2023-07-24T06:01:57;96025.47;;;16.32;100.00
11001;BME280;5553;48.506;8.870;2023-07-24T06:04:25;96020.81;;;16.40;100.00
11001;BME280;5553;48.506;8.870;2023-07-24T06:06:53;96019.53;;;16.42;100.00
11001;BME280;5553;48.506;8.870;2023-07-24T06:09:24;96016.88;;;16.42;100.00
11001;BME280;5553;48.506;8.870;2023-07-24T06:11:52;96004.53;;;16.53;100.00
11001;BME280;5553;48.506;8.870;2023-07-24T06:14:21;95996.38;;;16.59;100.00
11001;BME280;5553;48.506;8.870;2023-07-24T06:16:49;95993.56;;;16.66;100.00
11001;BME280;5553;48.506;8.870;2023-07-24T06:19:17;95983.56;;;16.73;100.00
11001;BME280;5553;48.506;8.870;2023-07-24T06:21:46;95981.81;;;16.79;100.00
11001;BME280;5553;48.506;8.870;2023-07-24T06:24:14;95978.16;;;16.85;100.00
11001;BME280;5553;48.506;8.870;2023-07-24T06:26:46;95973.97;;;16.89;100.00
11001;BME280;5553;48.506;8.870;2023-07-24T06:29:14;95984.97;;;16.93;100.00
11001;BME280;5553;48.506;8.870;2023-07-24T06:31:42;95967.31;;;17.09;100.00
11001;BME280;5553;48.506;8.870;2023-07-24T06:34:10;95964.94;;;17.29;100.00
11001;BME280;5553;48.506;8.870;2023-07-24T06:36:39;95953.53;;;17.56;100.00
11001;BME280;5553;48.506;8.870;2023-07-24T06:39:07;95940.59;;;17.64;100.00
11001;BME280;5553;48.506;8.870;2023-07-24T06:41:35;95948.84;;;17.85;100.00
11001;BME280;5553;48.506;8.870;2023-07-24T06:44:06;95956.56;;;17.86;100.00
11001;BME280;5553;48.506;8.870;2023-07-24T06:46:34;95963.22;;;18.11;100.00
11001;BME280;5553;48.506;8.870;2023-07-24T06:49:03;95953.13;;;18.13;100.00
11001;BME280;5553;48.506;8.870;2023-07-24T06:51:31;95966.88;;;18.27;100.00
11001;BME280;5553;48.506;8.870;2023-07-24T06:53:59;95975.47;;;18.34;100.00
11001;BME280;5553;48.506;8.870;2023-07-24T06:56:28;95981.19;;;18.47;100.00
11001;BME280;5553;48.506;8.870;2023-07-24T06:58:56;95996.00;;;18.60;100.00
11001;BME280;5553;48.506;8.870;2023-07-24T07:01:27;95993.66;;;18.69;100.00
11001;BME280;5553;48.506;8.870;2023-07-24T07:03:55;96001.34;;;18.87;100.00
11001;BME280;5553;48.506;8.870;2023-07-24T07:06:23;96009.28;;;19.14;100.00
11001;BME280;5553;48.506;8.870;2023-07-24T07:08:52;96025.75;;;19.96;100.00
11001;BME280;5553;48.506;8.870;2023-07-24T07:11:20;96010.66;;;19.70;100.00
11001;BME280;5553;48.506;8.870;2023-07-24T07:13:48;96021.97;;;19.87;100.00
11001;BME280;5553;48.506;8.870;2023-07-24T07:16:16;96020.03;;;19.72;100.00
11001;BME280;5553;48.506;8.870;2023-07-24T07:18:47;96011.75;;;19.79;100.00
11001;BME280;5553;48.506;8.870;2023-07-24T07:21:15;96019.97;;;20.25;100.00
11001;BME280;5553;48.506;8.870;2023-07-24T07:23:44;96020.75;;;20.30;100.00
11001;BME280;5553;48.506;8.870;2023-07-24T07:26:12;96029.63;;;20.41;100.00
11001;BME280;5553;48.506;8.870;2023-07-24T07:28:40;96028.84;;;20.46;100.00
11001;BME280;5553;48.506;8.870;2023-07-24T07:31:10;96036.31;;;20.28;100.00
11001;BME280;5553;48.506;8.870;2023-07-24T07:33:38;96039.53;;;20.41;100.00
11001;BME280;5553;48.506;8.870;2023-07-24T07:36:09;96042.16;;;20.20;100.00
11001;BME280;5553;48.506;8.870;2023-07-24T07:38:37;96052.88;;;20.25;100.00
11001;BME280;5553;48.506;8.870;2023-07-24T07:41:06;96064.16;;;20.27;100.00
11001;BME280;5553;48.506;8.870;2023-07-24T07:43:34;96059.00;;;20.16;100.00
11001;BME280;5553;48.506;8.870;2023-07-24T07:46:04;96066.19;;;20.00;100.00
11001;BME280;5553;48.506;8.870;2023-07-24T07:48:32;96082.75;;;19.86;100.00
11001;BME280;5553;48.506;8.870;2023-07-24T07:51:00;96086.81;;;19.57;100.00
11001;BME280;5553;48.506;8.870;2023-07-24T07:53:31;96074.25;;;19.20;100.00
11001;BME280;5553;48.506;8.870;2023-07-24T07:55:59;96088.94;;;18.85;100.00
11001;BME280;5553;48.506;8.870;2023-07-24T07:58:28;96072.97;;;18.36;100.00
11001;BME280;5553;48.506;8.870;2023-07-24T08:00:56;96070.34;;;17.75;100.00
11001;BME280;5553;48.506;8.870;2023-07-24T08:03:24;96095.91;;;17.71;100.00
11001;BME280;5553;48.506;8.870;2023-07-24T08:05:56;96054.50;;;17.69;100.00
11001;BME280;5553;48.506;8.870;2023-07-24T08:08:25;96044.28;;;17.61;100.00
11001;BME280;5553;48.506;8.870;2023-07-24T08:10:55;96041.22;;;17.52;100.00
11001;BME280;5553;48.506;8.870;2023-07-24T08:13:24;96041.06;;;17.59;100.00
11001;BME280;5553;48.506;8.870;2023-07-24T08:15:52;96041.28;;;17.57;100.00
11001;BME280;5553;48.506;8.870;2023-07-24T08:18:20;96042.16;;;17.63;100.00
11001;BME280;5553;48.506;8.870;2023-07-24T13:55:32;96170.69;;;20.20;100.00
11001;BME280;5553;48.506;8.870;2023-07-24T13:58:01;96190.56;;;20.29;100.00
11001;BME280;5553;48.506;8.870;2023-07-24T14:00:32;96181.16;;;20.22;100.00
11001;BME280;5553;48.506;8.870;2023-07-24T14:03:00;96183.09;;;20.36;100.00
11001;BME280;5553;48.506;8.870;2023-07-24T14:05:28;96178.38;;;20.06;100.00
11001;BME280;5553;48.506;8.870;2023-07-24T14:08:00;96183.72;;;20.01;100.00
11001;BME280;5553;48.506;8.870;2023-07-24T14:10:31;96190.69;;;20.02;100.00
11001;BME280;5553;48.506;8.870;2023-07-24T14:13:00;96187.78;;;20.09;100.00
11001;BME280;5553;48.506;8.870;2023-07-24T14:15:28;96195.41;;;20.32;100.00
11001;BME280;5553;48.506;8.870;2023-07-24T14:18:00;96200.16;;;20.78;100.00
11001;BME280;5553;48.506;8.870;2023-07-24T14:20:29;96200.97;;;20.83;100.00
11001;BME280;5553;48.506;8.870;2023-07-24T14:23:02;96198.25;;;20.63;100.00
11001;BME280;5553;48.506;8.870;2023-07-24T14:25:33;96242.28;;;20.82;100.00
11001;BME280;5553;48.506;8.870;2023-07-24T14:28:01;96246.19;;;21.63;100.00
11001;BME280;5553;48.506;8.870;2023-07-24T14:30:29;96242.72;;;21.47;100.00
11001;BME280;5553;48.506;8.870;2023-07-24T14:32:58;96241.84;;;21.16;100.00
11001;BME280;5553;48.506;8.870;2023-07-24T14:35:26;96211.50;;;21.00;100.00
11001;BME280;5553;48.506;8.870;2023-07-24T14:37:57;96161.13;;;20.34;100.00
11001;BME280;5553;48.506;8.870;2023-07-24T14:40:27;96168.09;;;20.41;100.00
11001;BME280;5553;48.506;8.870;2023-07-24T14:42:59;96156.25;;;20.21;100.00
11001;BME280;5553;48.506;8.870;2023-07-24T14:45:29;96170.88;;;20.56;100.00
11001;BME280;5553;48.506;8.870;2023-07-24T14:48:00;96181.44;;;20.93;100.00
11001;BME280;5553;48.506;8.870;2023-07-24T14:50:30;96184.97;;;21.91;100.00
11001;BME280;5553;48.506;8.870;2023-07-24T14:53:00;96207.00;;;21.47;100.00
11001;BME280;5553;48.506;8.870;2023-07-24T14:55:28;96193.53;;;20.33;100.00
11001;BME280;5553;48.506;8.870;2023-07-24T14:58:04;96202.81;;;20.15;100.00
11001;BME280;5553;48.506;8.870;2023-07-24T15:00:37;96177.44;;;20.33;100.00
11001;BME280;5553;48.506;8.870;2023-07-24T15:03:05;96171.28;;;20.32;100.00
11001;BME280;5553;48.506;8.870;2023-07-24T15:05:35;96179.13;;;20.49;100.00
11001;BME280;5553;48.506;8.870;2023-07-24T15:08:04;96160.00;;;20.25;100.00
11001;BME280;5553;48.506;8.870;2023-07-24T15:10:35;96167.69;;;20.59;100.00
11001;BME280;5553;48.506;8.870;2023-07-24T15:13:08;96190.22;;;20.78;100.00
11001;BME280;5553;48.506;8.870;2023-07-24T15:15:37;96170.81;;;20.46;100.00
11001;BME280;5553;48.506;8.870;2023-07-24T15:18:05;96183.25;;;20.15;100.00
11001;BME280;5553;48.506;8.870;2023-07-24T15:20:34;96184.84;;;20.63;100.00
11001;BME280;5553;48.506;8.870;2023-07-24T15:23:02;96206.72;;;20.50;100.00
11001;BME280;5553;48.506;8.870;2023-07-24T15:25:30;96183.53;;;20.18;100.00
11001;BME280;5553;48.506;8.870;2023-07-24T15:28:01;96192.09;;;20.15;100.00
11001;BME280;5553;48.506;8.870;2023-07-24T15:30:32;96196.38;;;20.16;100.00
11001;BME280;5553;48.506;8.870;2023-07-24T15:33:00;96182.63;;;19.97;100.00
11001;BME280;5553;48.506;8.870;2023-07-24T15:35:32;96187.50;;;20.05;100.00
11001;BME280;5553;48.506;8.870;2023-07-24T15:38:02;96188.75;;;19.93;100.00
11001;BME280;5553;48.506;8.870;2023-07-24T15:40:31;96194.88;;;19.88;100.00
11001;BME280;5553;48.506;8.870;2023-07-24T15:43:02;96205.84;;;19.86;100.00
11001;BME280;5553;48.506;8.870;2023-07-24T15:45:34;96202.09;;;19.87;100.00
11001;BME280;5553;48.506;8.870;2023-07-24T15:48:13;96207.38;;;19.77;100.00
11001;BME280;5553;48.506;8.870;2023-07-24T15:50:41;96203.91;;;19.77;100.00
11001;BME280;5553;48.506;8.870;2023-07-24T15:53:10;96190.66;;;19.97;100.00
11001;BME280;5553;48.506;8.870;2023-07-24T15:55:39;96197.44;;;20.15;100.00
11001;BME280;5553;48.506;8.870;2023-07-24T15:58:11;96186.59;;;20.42;100.00
11001;BME280;5553;48.506;8.870;2023-07-24T16:00:42;96193.22;;;20.87;100.00
11001;BME280;5553;48.506;8.870;2023-07-24T16:03:12;96196.25;;;21.21;100.00
11001;BME280;5553;48.506;8.870;2023-07-24T16:05:43;96188.72;;;21.18;100.00
11001;BME280;5553;48.506;8.870;2023-07-24T16:08:15;96180.69;;;21.18;100.00
11001;BME280;5553;48.506;8.870;2023-07-24T16:10:46;96165.06;;;20.85;100.00
11001;BME280;5553;48.506;8.870;2023-07-24T16:13:14;96167.16;;;20.67;100.00
11001;BME280;5553;48.506;8.870;2023-07-24T16:15:45;96165.53;;;20.56;100.00
11001;BME280;5553;48.506;8.870;2023-07-24T16:18:20;96158.69;;;20.33;100.00
11001;BME280;5553;48.506;8.870;2023-07-24T16:20:49;96151.47;;;20.28;100.00
11001;BME280;5553;48.506;8.870;2023-07-24T16:23:18;96147.19;;;20.27;100.00
11001;BME280;5553;48.506;8.870;2023-07-24T16:25:46;96141.56;;;20.34;100.00
11001;BME280;5553;48.506;8.870;2023-07-24T16:28:14;96142.94;;;20.47;100.00
11001;BME280;5553;48.506;8.870;2023-07-24T16:30:47;96139.25;;;20.53;100.00
11001;BME280;5553;48.506;8.870;2023-07-24T16:33:19;96132.06;;;20.74;100.00
11001;BME280;5553;48.506;8.870;2023-07-24T16:35:48;96119.78;;;21.19;100.00
11001;BME280;5553;48.506;8.870;2023-07-24T16:38:16;96111.22;;;20.96;100.00
11001;BME280;5553;48.506;8.870;2023-07-24T16:40:44;96110.94;;;20.82;100.00
11001;BME280;5553;48.506;8.870;2023-07-24T16:43:16;96115.72;;;20.70;100.00
11001;BME280;5553;48.506;8.870;2023-07-24T16:45:49;96112.81;;;20.82;100.00
11001;BME280;5553;48.506;8.870;2023-07-24T16:48:17;96108.53;;;20.86;100.00
11001;BME280;5553;48.506;8.870;2023-07-24T16:50:48;96105.28;;;20.74;100.00
11001;BME280;5553;48.506;8.870;2023-07-24T16:53:16;96102.56;;;20.58;100.00
11001;BME280;5553;48.506;8.870;2023-07-24T16:55:49;96109.22;;;20.51;100.00
11001;BME280;5553;48.506;8.870;2023-07-24T16:58:17;96110.88;;;20.52;100.00
11001;BME280;5553;48.506;8.870;2023-07-24T17:00:48;96104.38;;;20.38;100.00
11001;BME280;5553;48.506;8.870;2023-07-24T17:03:28;96096.84;;;20.34;100.00
11001;BME280;5553;48.506;8.870;2023-07-24T17:05:57;96100.00;;;20.21;100.00
11001;BME280;5553;48.506;8.870;2023-07-24T17:08:28;96117.41;;;20.19;100.00
11001;BME280;5553;48.506;8.870;2023-07-24T17:10:56;96111.72;;;20.10;100.00
11001;BME280;5553;48.506;8.870;2023-07-24T17:13:24;96121.91;;;20.08;100.00
11001;BME280;5553;48.506;8.870;2023-07-24T17:15:55;96135.91;;;20.25;100.00
11001;BME280;5553;48.506;8.870;2023-07-24T17:18:27;96140.94;;;20.17;100.00
11001;BME280;5553;48.506;8.870;2023-07-24T17:20:55;96161.44;;;19.91;100.00
11001;BME280;5553;48.506;8.870;2023-07-24T17:23:24;96152.25;;;19.76;100.00
11001;BME280;5553;48.506;8.870;2023-07-24T17:25:59;96162.88;;;20.03;100.00
11001;BME280;5553;48.506;8.870;2023-07-24T17:28:27;96164.25;;;20.11;100.00
11001;BME280;5553;48.506;8.870;2023-07-24T17:30:58;96182.19;;;20.10;100.00
11001;BME280;5553;48.506;8.870;2023-07-24T17:33:26;96175.97;;;20.05;100.00
11001;BME280;5553;48.506;8.870;2023-07-24T17:35:57;96199.69;;;20.33;100.00
11001;BME280;5553;48.506;8.870;2023-07-24T17:38:25;96191.38;;;20.30;100.00
11001;BME280;5553;48.506;8.870;2023-07-24T17:40:55;96196.44;;;20.26;100.00
11001;BME280;5553;48.506;8.870;2023-07-24T17:43:28;96190.28;;;20.26;100.00
11001;BME280;5553;48.506;8.870;2023-07-24T17:45:59;96192.44;;;20.29;100.00
11001;BME280;5553;48.506;8.870;2023-07-24T17:48:28;96207.53;;;20.45;100.00
11001;BME280;5553;48.506;8.870;2023-07-24T17:50:56;96212.00;;;20.29;100.00
11001;BME280;5553;48.506;8.870;2023-07-24T17:53:27;96201.78;;;20.21;100.00
11001;BME280;5553;48.506;8.870;2023-07-24T17:55:55;96193.06;;;19.94;100.00
11001;BME280;5553;48.506;8.870;2023-07-24T17:58:23;96186.06;;;19.93;100.00
11001;BME280;5553;48.506;8.870;2023-07-24T18:00:52;96187.84;;;19.77;100.00
11001;BME280;5553;48.506;8.870;2023-07-24T18:03:23;96180.03;;;19.70;100.00
11001;BME280;5553;48.506;8.870;2023-07-24T18:05:51;96190.09;;;19.58;100.00
11001;BME280;5553;48.506;8.870;2023-07-24T18:08:21;96185.66;;;19.41;100.00
11001;BME280;5553;48.506;8.870;2023-07-24T18:10:49;96191.97;;;19.25;100.00
11001;BME280;5553;48.506;8.870;2023-07-24T18:13:18;96191.41;;;19.23;100.00
11001;BME280;5553;48.506;8.870;2023-07-24T18:15:47;96183.59;;;19.16;100.00
11001;BME280;5553;48.506;8.870;2023-07-24T18:18:15;96179.50;;;19.09;100.00
11001;BME280;5553;48.506;8.870;2023-07-24T18:20:46;96194.16;;;19.01;100.00
11001;BME280;5553;48.506;8.870;2023-07-24T18:23:14;96200.72;;;18.93;100.00
11001;BME280;5553;48.506;8.870;2023-07-24T18:25:43;96196.94;;;18.89;100.00
11001;BME280;5553;48.506;8.870;2023-07-24T18:28:11;96195.78;;;18.80;100.00
11001;BME280;5553;48.506;8.870;2023-07-24T18:30:41;96204.00;;;18.74;100.00
11001;BME280;5553;48.506;8.870;2023-07-24T18:33:09;96199.13;;;18.70;100.00
11001;BME280;5553;48.506;8.870;2023-07-24T18:35:38;96206.78;;;18.62;100.00
11001;BME280;5553;48.506;8.870;2023-07-24T18:38:08;96211.22;;;18.56;100.00
11001;BME280;5553;48.506;8.870;2023-07-24T18:40:37;96199.22;;;18.54;100.00
11001;BME280;5553;48.506;8.870;2023-07-24T18:43:05;96201.44;;;18.40;100.00
11001;BME280;5553;48.506;8.870;2023-07-24T18:45:34;96216.94;;;18.21;100.00
11001;BME280;5553;48.506;8.870;2023-07-24T18:48:02;96215.88;;;18.22;100.00